F/V Les Antilles — FGPP — position and weather

sailwx.info

Track history (hours):
 
Tides and Currents Weather Stations Pressure Air Temp Water Temp Dewpoint Dewpoint Depression Visibility Wind Speed Wind Dir Waves Ship Positions

F/V Les Antilles

Last reported at 2018-Jun-19 00:16 UTC. Time now 2018-Jun-19 01:24 UTC.
Position N 47°52' W 003°55'.

Length 15 m.

MMSI: 228905000.

Date/timePositionNaut miles runAvg speedWind from/ knotsBaromVisibWave heightAir tempDewpointWater temp
2018-Jun-19 00:16N 47°52' W 003°55'3 8.1
2018-Jun-18 23:57N 47°49' W 003°56'6 8.4
2018-Jun-18 23:13N 47°43' W 003°55'2 8.0
2018-Jun-18 23:00N 47°41' W 003°54'4 8.0
2018-Jun-18 22:28N 47°37' W 003°54'4 8.0
2018-Jun-18 22:01N 47°34' W 003°53'4 8.0
2018-Jun-18 21:30N 47°30' W 003°53'4 5.5
2018-Jun-18 20:42N 47°25' W 003°53'2 3.1
2018-Jun-18 19:59N 47°23' W 003°54'2 3.0
2018-Jun-18 19:22N 47°21' W 003°55'2 3.0
2018-Jun-18 18:51N 47°20' W 003°54'1 3.1
2018-Jun-18 18:30N 47°19' W 003°54'7 0.9
2018-Jun-18 11:19N 47°12' W 003°52'1 3.6
2018-Jun-18 10:58N 47°13' W 003°51'2 3.0
2018-Jun-18 10:20N 47°15' W 003°53'3 2.7
2018-Jun-18 09:20N 47°13' W 003°56'1 2.9
2018-Jun-18 09:00N 47°12' W 003°56'1 2.5
2018-Jun-18 08:29N 47°12' W 003°54'1 2.2
2018-Jun-18 07:59N 47°12' W 003°53'2 3.4
2018-Jun-18 07:29N 47°14' W 003°53'2 3.4
2018-Jun-18 06:56N 47°16' W 003°54'1 3.3
2018-Jun-18 06:30N 47°17' W 003°54'4 3.1
2018-Jun-18 05:07N 47°21' W 003°52'1 3.2
2018-Jun-18 04:41N 47°23' W 003°51'1 3.3
2018-Jun-18 04:28N 47°23' W 003°51'2 3.3
2018-Jun-18 03:58N 47°25' W 003°51'2 3.8
2018-Jun-18 03:30N 47°27' W 003°51'3 6.5
2018-Jun-18 02:59N 47°30' W 003°54'3 6.5
2018-Jun-18 02:28N 47°32' W 003°57'3 6.3
2018-Jun-18 01:59N 47°35' W 004°00'3 6.1
2018-Jun-18 01:30N 47°37' W 004°03'14 7.0
2018-Jun-17 23:33N 47°50' W 004°09'1 0.0
2018-Jun-15 23:48N 47°50' W 004°10'0 0.0
2018-Jun-15 22:52N 47°50' W 004°10'0 0.0
2018-Jun-15 22:18N 47°50' W 004°10'0 0.0
2018-Jun-15 20:48N 47°50' W 004°10'0 0.0
2018-Jun-15 19:48N 47°50' W 004°10'0 0.0
2018-Jun-15 18:48N 47°50' W 004°10'0 0.0
2018-Jun-15 16:48N 47°50' W 004°10'2 1.4
2018-Jun-15 14:58N 47°48' W 004°09'10 8.9
2018-Jun-15 13:48N 47°40' W 004°19'16 1.3
2018-Jun-15 01:33N 47°25' W 004°13'1 3.5
2018-Jun-15 01:19N 47°24' W 004°14'1 3.5
2018-Jun-15 01:00N 47°23' W 004°15'13 1.5
2018-Jun-14 16:06N 47°14' W 004°01'1 3.1
2018-Jun-14 15:41N 47°13' W 003°60'8 0.9
2018-Jun-14 06:33N 47°21' W 003°60'0 3.6
2018-Jun-14 06:27N 47°21' W 003°60'3 3.0
2018-Jun-14 05:29N 47°24' W 003°59'2 3.2
2018-Jun-14 04:49N 47°25' W 003°57'2 3.2
2018-Jun-14 04:17N 47°26' W 003°55'2 3.2
2018-Jun-14 03:39N 47°27' W 003°52'1 8.3
2018-Jun-14 03:30N 47°29' W 003°53'5 8.6
2018-Jun-14 02:58N 47°33' W 003°53'4 8.4
2018-Jun-14 02:30N 47°37' W 003°54'8 8.5
2018-Jun-14 01:35N 47°45' W 003°55'1 8.5
2018-Jun-14 01:27N 47°46' W 003°55'5 8.5
2018-Jun-14 00:54N 47°51' W 003°56'1 1.2
2018-Jun-13 23:52N 47°52' W 003°55'11 8.3
2018-Jun-13 22:33N 47°41' W 003°54'9 8.4
2018-Jun-13 21:32N 47°32' W 003°54'2 8.5
2018-Jun-13 21:17N 47°30' W 003°54'20 2.2
2018-Jun-13 12:22N 47°12' W 004°02'3 0.7
2018-Jun-13 08:43N 47°14' W 004°02'2 3.7
2018-Jun-13 08:15N 47°16' W 004°02'9 3.0
2018-Jun-13 05:09N 47°25' W 003°58'2 3.4
2018-Jun-13 04:38N 47°26' W 003°56'0 3.4
2018-Jun-13 04:29N 47°26' W 003°55'2 3.4
2018-Jun-13 03:56N 47°27' W 003°53'3 6.9
2018-Jun-13 03:29N 47°30' W 003°53'4 8.4
2018-Jun-13 03:00N 47°34' W 003°54'11 8.6
2018-Jun-13 01:45N 47°45' W 003°55'2 8.6
2018-Jun-13 01:30N 47°47' W 003°55'4 8.7
2018-Jun-13 01:00N 47°51' W 003°56'0 0.2
2018-Jun-12 23:56N 47°51' W 003°56'10 8.7
2018-Jun-12 22:48N 47°42' W 003°55'3 8.7
2018-Jun-12 22:30N 47°39' W 003°55'5 8.4
2018-Jun-12 21:55N 47°34' W 003°55'3 8.2
2018-Jun-12 21:29N 47°31' W 003°55'4 7.8
2018-Jun-12 20:58N 47°27' W 003°55'1 2.2
2018-Jun-12 20:21N 47°26' W 003°56'3 0.7
2018-Jun-12 16:28N 47°28' W 003°54'1 1.9
2018-Jun-12 15:58N 47°29' W 003°54'2 3.5
2018-Jun-12 15:21N 47°30' W 003°52'1 3.5
2018-Jun-12 14:59N 47°32' W 003°52'2 3.6
2018-Jun-12 14:23N 47°33' W 003°55'1 3.6
2018-Jun-12 13:59N 47°34' W 003°56'1 0.3
2018-Jun-12 09:05N 47°33' W 003°55'3 3.3
2018-Jun-12 08:12N 47°32' W 003°51'1 3.5
2018-Jun-12 08:00N 47°32' W 003°50'1 1.6
2018-Jun-12 07:23N 47°33' W 003°50'5 2.9
2018-Jun-12 05:48N 47°33' W 003°57'1 3.1
2018-Jun-12 05:26N 47°33' W 003°59'1 2.9
2018-Jun-12 04:58N 47°33' W 004°01'3 3.0
2018-Jun-12 04:04N 47°31' W 003°59'0 3.1
2018-Jun-12 03:56N 47°31' W 003°58'1 3.0
2018-Jun-12 03:30N 47°29' W 003°58'2 3.1
2018-Jun-12 02:59N 47°28' W 003°56'1 1.9
2018-Jun-12 02:24N 47°28' W 003°54'1 2.8
2018-Jun-12 02:00N 47°27' W 003°53'2 2.8
2018-Jun-12 01:27N 47°26' W 003°53'2 2.9
2018-Jun-12 00:55N 47°24' W 003°54'1 2.9
2018-Jun-12 00:30N 47°23' W 003°54'2 2.9
2018-Jun-11 23:58N 47°22' W 003°56'3 3.1
2018-Jun-11 23:03N 47°22' W 004°00'1 2.4
2018-Jun-11 22:39N 47°23' W 004°01'2 3.4
2018-Jun-11 22:07N 47°24' W 003°59'1 3.4
2018-Jun-11 21:52N 47°25' W 003°59'2 3.5
2018-Jun-11 21:22N 47°27' W 003°58'1 2.5
2018-Jun-11 21:00N 47°28' W 003°57'1 2.9
2018-Jun-11 20:30N 47°28' W 003°55'1 2.9
2018-Jun-11 20:00N 47°27' W 003°53'3 0.5
2018-Jun-11 14:21N 47°25' W 003°57'4 3.1
2018-Jun-11 13:13N 47°27' W 003°52'1 3.2
2018-Jun-11 13:00N 47°28' W 003°51'2 3.2
2018-Jun-11 12:30N 47°29' W 003°49'1 3.0
2018-Jun-11 12:00N 47°28' W 003°47'2 2.8
2018-Jun-11 11:19N 47°29' W 003°49'1 3.4
2018-Jun-11 11:00N 47°30' W 003°50'2 0.6
2018-Jun-11 08:28N 47°29' W 003°51'2 3.3
2018-Jun-11 07:53N 47°31' W 003°51'1 1.9
2018-Jun-11 07:30N 47°31' W 003°52'15 3.3
2018-Jun-11 02:53N 47°41' W 004°09'8 7.7
2018-Jun-11 01:48N 47°50' W 004°09'1 0.1
2018-Jun-10 13:48N 47°50' W 004°10'0 0.0
2018-Jun-10 03:48N 47°50' W 004°10'0 0.0
2018-Jun-10 02:48N 47°50' W 004°10'0 0.0
2018-Jun-09 22:48N 47°50' W 004°10'0 0.0
2018-Jun-09 04:43N 47°50' W 004°10'  
Track history (hours):
 
Tides and Currents Weather Stations Pressure Air Temp Water Temp Dewpoint Dewpoint Depression Visibility Wind Speed Wind Dir Waves Ship Positions

F/V Les Antilles

Last reported at 2018-Jun-19 00:16 UTC. Time now 2018-Jun-19 01:24 UTC.
Position N 47°52' W 003°55'.

Length 15 m.

MMSI: 228905000.

Date/timePositionNaut miles runAvg speedWind from/ knotsBaromVisibWave heightAir tempDewpointWater temp
2018-Jun-19 00:16N 47°52' W 003°55'3 8.1
2018-Jun-18 23:57N 47°49' W 003°56'6 8.4
2018-Jun-18 23:13N 47°43' W 003°55'2 8.0
2018-Jun-18 23:00N 47°41' W 003°54'4 8.0
2018-Jun-18 22:28N 47°37' W 003°54'4 8.0
2018-Jun-18 22:01N 47°34' W 003°53'4 8.0
2018-Jun-18 21:30N 47°30' W 003°53'4 5.5
2018-Jun-18 20:42N 47°25' W 003°53'2 3.1
2018-Jun-18 19:59N 47°23' W 003°54'2 3.0
2018-Jun-18 19:22N 47°21' W 003°55'2 3.0
2018-Jun-18 18:51N 47°20' W 003°54'1 3.1
2018-Jun-18 18:30N 47°19' W 003°54'7 0.9
2018-Jun-18 11:19N 47°12' W 003°52'1 3.6
2018-Jun-18 10:58N 47°13' W 003°51'2 3.0
2018-Jun-18 10:20N 47°15' W 003°53'3 2.7
2018-Jun-18 09:20N 47°13' W 003°56'1 2.9
2018-Jun-18 09:00N 47°12' W 003°56'1 2.5
2018-Jun-18 08:29N 47°12' W 003°54'1 2.2
2018-Jun-18 07:59N 47°12' W 003°53'2 3.4
2018-Jun-18 07:29N 47°14' W 003°53'2 3.4
2018-Jun-18 06:56N 47°16' W 003°54'1 3.3
2018-Jun-18 06:30N 47°17' W 003°54'4 3.1
2018-Jun-18 05:07N 47°21' W 003°52'1 3.2
2018-Jun-18 04:41N 47°23' W 003°51'1 3.3
2018-Jun-18 04:28N 47°23' W 003°51'2 3.3
2018-Jun-18 03:58N 47°25' W 003°51'2 3.8
2018-Jun-18 03:30N 47°27' W 003°51'3 6.5
2018-Jun-18 02:59N 47°30' W 003°54'3 6.5
2018-Jun-18 02:28N 47°32' W 003°57'3 6.3
2018-Jun-18 01:59N 47°35' W 004°00'3 6.1
2018-Jun-18 01:30N 47°37' W 004°03'14 7.0
2018-Jun-17 23:33N 47°50' W 004°09'1 0.0
2018-Jun-15 23:48N 47°50' W 004°10'0 0.0
2018-Jun-15 22:52N 47°50' W 004°10'0 0.0
2018-Jun-15 22:18N 47°50' W 004°10'0 0.0
2018-Jun-15 20:48N 47°50' W 004°10'0 0.0
2018-Jun-15 19:48N 47°50' W 004°10'0 0.0
2018-Jun-15 18:48N 47°50' W 004°10'0 0.0
2018-Jun-15 16:48N 47°50' W 004°10'2 1.4
2018-Jun-15 14:58N 47°48' W 004°09'10 8.9
2018-Jun-15 13:48N 47°40' W 004°19'16 1.3
2018-Jun-15 01:33N 47°25' W 004°13'1 3.5
2018-Jun-15 01:19N 47°24' W 004°14'1 3.5
2018-Jun-15 01:00N 47°23' W 004°15'13 1.5
2018-Jun-14 16:06N 47°14' W 004°01'1 3.1
2018-Jun-14 15:41N 47°13' W 003°60'8 0.9
2018-Jun-14 06:33N 47°21' W 003°60'0 3.6
2018-Jun-14 06:27N 47°21' W 003°60'3 3.0
2018-Jun-14 05:29N 47°24' W 003°59'2 3.2
2018-Jun-14 04:49N 47°25' W 003°57'2 3.2
2018-Jun-14 04:17N 47°26' W 003°55'2 3.2
2018-Jun-14 03:39N 47°27' W 003°52'1 8.3
2018-Jun-14 03:30N 47°29' W 003°53'5 8.6
2018-Jun-14 02:58N 47°33' W 003°53'4 8.4
2018-Jun-14 02:30N 47°37' W 003°54'8 8.5
2018-Jun-14 01:35N 47°45' W 003°55'1 8.5
2018-Jun-14 01:27N 47°46' W 003°55'5 8.5
2018-Jun-14 00:54N 47°51' W 003°56'1 1.2
2018-Jun-13 23:52N 47°52' W 003°55'11 8.3
2018-Jun-13 22:33N 47°41' W 003°54'9 8.4
2018-Jun-13 21:32N 47°32' W 003°54'2 8.5
2018-Jun-13 21:17N 47°30' W 003°54'20 2.2
2018-Jun-13 12:22N 47°12' W 004°02'3 0.7
2018-Jun-13 08:43N 47°14' W 004°02'2 3.7
2018-Jun-13 08:15N 47°16' W 004°02'9 3.0
2018-Jun-13 05:09N 47°25' W 003°58'2 3.4
2018-Jun-13 04:38N 47°26' W 003°56'0 3.4
2018-Jun-13 04:29N 47°26' W 003°55'2 3.4
2018-Jun-13 03:56N 47°27' W 003°53'3 6.9
2018-Jun-13 03:29N 47°30' W 003°53'4 8.4
2018-Jun-13 03:00N 47°34' W 003°54'11 8.6
2018-Jun-13 01:45N 47°45' W 003°55'2 8.6
2018-Jun-13 01:30N 47°47' W 003°55'4 8.7
2018-Jun-13 01:00N 47°51' W 003°56'0 0.2
2018-Jun-12 23:56N 47°51' W 003°56'10 8.7
2018-Jun-12 22:48N 47°42' W 003°55'3 8.7
2018-Jun-12 22:30N 47°39' W 003°55'5 8.4
2018-Jun-12 21:55N 47°34' W 003°55'3 8.2
2018-Jun-12 21:29N 47°31' W 003°55'4 7.8
2018-Jun-12 20:58N 47°27' W 003°55'1 2.2
2018-Jun-12 20:21N 47°26' W 003°56'3 0.7
2018-Jun-12 16:28N 47°28' W 003°54'1 1.9
2018-Jun-12 15:58N 47°29' W 003°54'2 3.5
2018-Jun-12 15:21N 47°30' W 003°52'1 3.5
2018-Jun-12 14:59N 47°32' W 003°52'2 3.6
2018-Jun-12 14:23N 47°33' W 003°55'1 3.6
2018-Jun-12 13:59N 47°34' W 003°56'1 0.3
2018-Jun-12 09:05N 47°33' W 003°55'3 3.3
2018-Jun-12 08:12N 47°32' W 003°51'1 3.5
2018-Jun-12 08:00N 47°32' W 003°50'1 1.6
2018-Jun-12 07:23N 47°33' W 003°50'5 2.9
2018-Jun-12 05:48N 47°33' W 003°57'1 3.1
2018-Jun-12 05:26N 47°33' W 003°59'1 2.9
2018-Jun-12 04:58N 47°33' W 004°01'3 3.0
2018-Jun-12 04:04N 47°31' W 003°59'0 3.1
2018-Jun-12 03:56N 47°31' W 003°58'1 3.0
2018-Jun-12 03:30N 47°29' W 003°58'2 3.1
2018-Jun-12 02:59N 47°28' W 003°56'1 1.9
2018-Jun-12 02:24N 47°28' W 003°54'1 2.8
2018-Jun-12 02:00N 47°27' W 003°53'2 2.8
2018-Jun-12 01:27N 47°26' W 003°53'2 2.9
2018-Jun-12 00:55N 47°24' W 003°54'1 2.9
2018-Jun-12 00:30N 47°23' W 003°54'2 2.9
2018-Jun-11 23:58N 47°22' W 003°56'3 3.1
2018-Jun-11 23:03N 47°22' W 004°00'1 2.4
2018-Jun-11 22:39N 47°23' W 004°01'2 3.4
2018-Jun-11 22:07N 47°24' W 003°59'1 3.4
2018-Jun-11 21:52N 47°25' W 003°59'2 3.5
2018-Jun-11 21:22N 47°27' W 003°58'1 2.5
2018-Jun-11 21:00N 47°28' W 003°57'1 2.9
2018-Jun-11 20:30N 47°28' W 003°55'1 2.9
2018-Jun-11 20:00N 47°27' W 003°53'3 0.5
2018-Jun-11 14:21N 47°25' W 003°57'4 3.1
2018-Jun-11 13:13N 47°27' W 003°52'1 3.2
2018-Jun-11 13:00N 47°28' W 003°51'2 3.2
2018-Jun-11 12:30N 47°29' W 003°49'1 3.0
2018-Jun-11 12:00N 47°28' W 003°47'2 2.8
2018-Jun-11 11:19N 47°29' W 003°49'1 3.4
2018-Jun-11 11:00N 47°30' W 003°50'2 0.6
2018-Jun-11 08:28N 47°29' W 003°51'2 3.3
2018-Jun-11 07:53N 47°31' W 003°51'1 1.9
2018-Jun-11 07:30N 47°31' W 003°52'15 3.3
2018-Jun-11 02:53N 47°41' W 004°09'8 7.7
2018-Jun-11 01:48N 47°50' W 004°09'1 0.1
2018-Jun-10 13:48N 47°50' W 004°10'0 0.0
2018-Jun-10 03:48N 47°50' W 004°10'0 0.0
2018-Jun-10 02:48N 47°50' W 004°10'0 0.0
2018-Jun-09 22:48N 47°50' W 004°10'0 0.0
2018-Jun-09 04:43N 47°50' W 004°10'  

Dump ship's entire track history